Time;durP1;ratioP1;P1;durP2;ratioP2;P2;SDS_P1;SDS_P2;PMS_P1;PMS_P2;Temp;Humidity;BMP_temperature;BMP_pressure;BME280_temperature;BME280_humidity;BME280_pressure;Samples;Min_cycle;Max_cycle;Signal;HPM_P1;HPM_P2
2022/04/23 00:02:24;;;;;;;14.73;13.50;;;11.40;99.90;;;;;;5145829;27;20636;-82
2022/04/23 00:04:52;;;;;;;14.50;13.50;;;11.50;99.90;;;;;;5142596;27;20672;-82
2022/04/23 00:07:19;;;;;;;14.17;13.17;;;11.00;99.90;;;;;;5145823;27;20625;-81
2022/04/23 00:09:45;;;;;;;14.13;13.13;;;11.00;99.90;;;;;;5141546;27;20653;-82
2022/04/23 00:12:12;;;;;;;14.33;13.33;;;11.30;99.90;;;;;;5140093;27;20630;-82
2022/04/23 00:14:39;;;;;;;13.70;12.60;;;10.90;99.90;;;;;;5144438;27;20621;-82
2022/04/23 00:17:06;;;;;;;13.67;12.63;;;10.80;99.90;;;;;;5140215;27;21206;-82
2022/04/23 00:19:33;;;;;;;13.57;12.37;;;11.50;99.90;;;;;;5140175;27;20676;-82
2022/04/23 00:22:02;;;;;;;12.70;11.90;;;11.30;99.90;;;;;;5145222;27;20629;-81
2022/04/23 00:24:28;;;;;;;13.00;11.83;;;11.10;99.90;;;;;;5142423;27;20661;-82
2022/04/23 00:26:55;;;;;;;11.53;10.63;;;11.20;99.90;;;;;;5146947;27;20617;-82
2022/04/23 00:29:22;;;;;;;12.00;11.10;;;11.20;99.90;;;;;;5142020;27;21506;-82
2022/04/23 00:31:48;;;;;;;12.17;11.27;;;11.00;99.90;;;;;;5143116;27;20622;-82
2022/04/23 00:34:15;;;;;;;12.20;11.30;;;11.20;99.90;;;;;;5140820;27;20632;-82
2022/04/23 00:36:42;;;;;;;11.87;11.07;;;10.80;99.90;;;;;;5145388;27;21199;-82
2022/04/23 00:39:12;;;;;;;11.67;10.50;;;11.30;99.90;;;;;;5144195;27;20630;-81
2022/04/23 00:41:46;;;;;;;11.63;10.77;;;10.80;99.90;;;;;;5141085;27;20629;-82
2022/04/23 00:44:13;;;;;;;11.70;11.00;;;10.70;99.90;;;;;;5138446;27;20630;-81
2022/04/23 00:46:40;;;;;;;10.60;9.90;;;11.10;99.90;;;;;;5144491;27;20598;-82
2022/04/23 00:49:06;;;;;;;11.40;10.60;;;11.00;99.90;;;;;;5142941;27;20625;-81
2022/04/23 00:51:34;;;;;;;10.90;10.20;;;11.10;99.90;;;;;;5142858;27;20733;-81
2022/04/23 00:54:05;;;;;;;11.70;10.90;;;10.70;99.90;;;;;;5139758;27;21183;-81
2022/04/23 00:56:33;;;;;;;10.37;9.50;;;11.00;99.90;;;;;;5125950;27;20621;-82
2022/04/23 00:59:01;;;;;;;12.17;11.17;;;11.00;99.90;;;;;;5139295;27;20625;-81
2022/04/23 01:01:27;;;;;;;11.20;10.50;;;10.90;99.90;;;;;;5145152;27;20660;-82
2022/04/23 01:03:57;;;;;;;11.27;10.47;;;10.90;99.90;;;;;;5140886;27;20618;-81
2022/04/23 01:06:24;;;;;;;10.23;9.53;;;10.40;99.90;;;;;;5142950;27;20733;-82
2022/04/23 01:08:51;;;;;;;12.37;11.47;;;10.40;99.90;;;;;;5144817;27;21015;-82
2022/04/23 01:11:18;;;;;;;11.23;10.50;;;10.60;99.90;;;;;;5143926;27;20994;-81
2022/04/23 01:13:46;;;;;;;11.50;10.60;;;10.60;99.90;;;;;;5141096;27;20713;-81
2022/04/23 01:16:13;;;;;;;11.70;10.90;;;10.60;99.90;;;;;;5141703;27;20679;-81
2022/04/23 01:18:42;;;;;;;11.83;11.03;;;10.20;99.90;;;;;;5140023;27;20649;-81
2022/04/23 01:21:10;;;;;;;12.03;11.23;;;10.30;99.90;;;;;;5143875;27;20677;-81
2022/04/23 01:23:39;;;;;;;12.77;11.90;;;10.20;99.90;;;;;;5143704;27;21025;-82
2022/04/23 01:26:05;;;;;;;12.40;11.60;;;10.20;99.90;;;;;;5142212;27;21402;-81
2022/04/23 01:28:35;;;;;;;13.67;12.70;;;10.60;99.90;;;;;;5140524;27;20629;-81
2022/04/23 01:31:03;;;;;;;13.47;12.47;;;10.40;99.90;;;;;;5144878;27;20998;-81
2022/04/23 01:33:30;;;;;;;13.60;12.70;;;10.20;99.90;;;;;;5143956;27;20637;-82
2022/04/23 01:35:57;;;;;;;15.27;14.10;;;10.30;99.90;;;;;;5149861;27;20629;-81
2022/04/23 01:38:25;;;;;;;14.60;13.60;;;10.60;99.90;;;;;;5144335;27;21242;-82
2022/04/23 01:40:52;;;;;;;14.50;13.40;;;10.40;99.90;;;;;;5147668;27;20659;-82
2022/04/23 01:43:18;;;;;;;15.60;14.60;;;10.40;99.90;;;;;;5148542;27;20972;-82
2022/04/23 01:45:45;;;;;;;14.83;13.83;;;10.60;99.90;;;;;;5145739;27;20668;-81
2022/04/23 01:48:12;;;;;;;15.60;14.60;;;10.40;99.90;;;;;;5147080;27;21050;-82
2022/04/23 01:50:39;;;;;;;16.30;15.30;;;10.40;99.90;;;;;;5146302;27;20853;-82
2022/04/23 01:53:06;;;;;;;15.73;14.63;;;10.00;99.90;;;;;;5135979;27;20661;-82
2022/04/23 01:55:35;;;;;;;15.83;14.83;;;10.20;99.90;;;;;;5144425;27;20633;-82
2022/04/23 01:58:02;;;;;;;15.63;14.73;;;10.30;99.90;;;;;;5142674;27;20617;-82
2022/04/23 02:00:29;;;;;;;15.67;14.67;;;10.50;99.90;;;;;;5149497;27;21000;-82
2022/04/23 02:02:57;;;;;;;16.60;15.57;;;10.10;99.90;;;;;;5147094;27;20976;-82
2022/04/23 02:05:24;;;;;;;16.40;15.30;;;10.30;99.90;;;;;;5147669;27;20692;-81
2022/04/23 02:07:51;;;;;;;17.70;16.50;;;10.40;99.90;;;;;;5127923;27;21195;-82
2022/04/23 02:10:17;;;;;;;17.80;16.60;;;10.30;99.90;;;;;;5152268;27;20657;-82
2022/04/23 02:12:46;;;;;;;18.00;16.80;;;10.30;99.90;;;;;;5141410;27;20613;-81
2022/04/23 02:15:15;;;;;;;16.80;15.57;;;9.90;99.90;;;;;;5146237;27;20705;-81
2022/04/23 02:17:43;;;;;;;17.10;16.00;;;10.20;99.90;;;;;;5146047;27;21203;-82
2022/04/23 02:20:11;;;;;;;16.37;15.27;;;10.10;99.90;;;;;;5144822;27;20656;-82
2022/04/23 02:22:39;;;;;;;18.43;17.03;;;10.10;99.90;;;;;;5145037;27;20678;-82
2022/04/23 02:25:07;;;;;;;18.83;17.43;;;10.20;99.90;;;;;;5146430;27;20653;-81
2022/04/23 02:27:46;;;;;;;18.67;17.37;;;10.20;99.90;;;;;;5146847;27;20626;-82
2022/04/23 02:30:14;;;;;;;18.07;16.90;;;9.80;99.90;;;;;;5146918;27;20660;-82
2022/04/23 02:32:41;;;;;;;19.47;17.93;;;10.10;99.90;;;;;;5147732;27;20606;-82
2022/04/23 02:35:09;;;;;;;19.50;18.30;;;10.10;99.90;;;;;;5143456;27;20624;-82
2022/04/23 02:37:36;;;;;;;18.97;17.77;;;10.00;99.90;;;;;;5138106;27;20629;-82
2022/04/23 02:40:03;;;;;;;18.47;17.27;;;9.70;99.90;;;;;;5148644;27;21254;-82
2022/04/23 02:42:30;;;;;;;19.00;17.70;;;9.70;99.90;;;;;;5144828;27;20661;-82
2022/04/23 02:45:01;;;;;;;18.00;16.63;;;9.80;99.90;;;;;;5147339;27;20716;-82
2022/04/23 02:47:27;;;;;;;18.33;17.13;;;9.90;99.90;;;;;;5145011;27;20633;-81
2022/04/23 02:49:54;;;;;;;19.03;17.67;;;9.60;99.90;;;;;;5142057;27;20657;-82
2022/04/23 02:52:21;;;;;;;18.83;17.63;;;10.00;99.90;;;;;;5142666;27;20626;-82
2022/04/23 02:54:50;;;;;;;18.20;17.07;;;9.70;99.90;;;;;;5147712;27;20685;-82
2022/04/23 02:57:17;;;;;;;19.00;17.77;;;10.20;99.90;;;;;;5144492;27;21297;-82
2022/04/23 02:59:44;;;;;;;18.30;17.10;;;9.70;99.90;;;;;;5146034;27;21102;-82
2022/04/23 03:02:12;;;;;;;17.43;16.33;;;9.60;99.90;;;;;;5144831;27;20631;-82
2022/04/23 03:04:39;;;;;;;19.10;17.80;;;9.60;99.90;;;;;;5143580;27;20630;-82
2022/04/23 03:07:06;;;;;;;18.67;17.27;;;10.00;99.90;;;;;;5146666;27;20656;-82
2022/04/23 03:09:32;;;;;;;18.50;17.20;;;9.80;99.90;;;;;;5145386;27;21000;-82
2022/04/23 03:11:59;;;;;;;18.63;17.33;;;9.50;99.90;;;;;;5143367;27;20609;-82
2022/04/23 03:14:26;;;;;;;18.43;17.23;;;9.80;99.90;;;;;;5144874;27;20625;-82
2022/04/23 03:16:52;;;;;;;17.20;16.10;;;10.20;99.90;;;;;;5142473;27;20634;-82
2022/04/23 03:19:20;;;;;;;17.30;16.10;;;9.70;99.90;;;;;;5136534;27;20626;-82
2022/04/23 03:21:47;;;;;;;16.20;15.20;;;9.50;99.90;;;;;;5145950;27;20619;-81
2022/04/23 03:24:14;;;;;;;18.87;17.67;;;9.90;99.90;;;;;;5144618;27;21108;-82
2022/04/23 03:26:41;;;;;;;17.30;16.17;;;9.60;99.90;;;;;;5147908;27;20653;-82
2022/04/23 03:29:08;;;;;;;17.80;16.70;;;9.70;99.90;;;;;;5142213;27;20705;-82
2022/04/23 03:31:34;;;;;;;17.20;16.10;;;9.70;99.90;;;;;;5143895;27;20646;-82
2022/04/23 03:34:01;;;;;;;16.77;15.67;;;9.30;99.90;;;;;;5144843;27;21037;-82
2022/04/23 03:36:30;;;;;;;17.73;16.63;;;9.30;99.90;;;;;;5143128;27;21019;-82
2022/04/23 03:38:57;;;;;;;18.00;16.80;;;9.40;99.90;;;;;;5146153;27;20977;-81
2022/04/23 03:41:25;;;;;;;17.43;16.33;;;9.30;99.90;;;;;;5143841;27;20656;-82
2022/04/23 03:43:52;;;;;;;17.90;16.70;;;9.40;99.90;;;;;;5145480;27;20634;-81
2022/04/23 03:46:19;;;;;;;16.93;15.93;;;9.80;99.90;;;;;;5144159;27;20645;-82
2022/04/23 03:48:45;;;;;;;17.70;16.60;;;9.60;99.90;;;;;;5143805;27;21199;-82
2022/04/23 03:51:12;;;;;;;16.97;15.87;;;9.30;99.90;;;;;;5145290;27;20656;-82
2022/04/23 03:53:40;;;;;;;16.90;15.80;;;9.80;99.90;;;;;;5135967;27;20609;-82
2022/04/23 03:56:08;;;;;;;19.10;17.83;;;9.60;99.90;;;;;;5145192;27;20621;-82
2022/04/23 03:58:36;;;;;;;17.73;16.47;;;9.20;99.90;;;;;;5141669;27;20625;-83
2022/04/23 04:01:03;;;;;;;16.67;15.57;;;9.30;99.90;;;;;;5143396;27;20747;-83
2022/04/23 04:03:29;;;;;;;17.90;16.80;;;9.60;99.90;;;;;;5145886;27;20699;-82
2022/04/23 04:05:57;;;;;;;18.77;17.47;;;9.70;99.90;;;;;;5144269;27;20661;-82
2022/04/23 04:08:23;;;;;;;17.97;16.87;;;9.80;99.90;;;;;;5143488;27;20618;-82
2022/04/23 04:10:52;;;;;;;16.97;15.87;;;9.50;99.90;;;;;;5142950;27;20645;-81
2022/04/23 04:13:18;;;;;;;17.77;16.57;;;9.20;99.90;;;;;;5143321;27;20625;-82
2022/04/23 04:15:47;;;;;;;18.07;16.47;;;9.70;99.90;;;;;;5143874;27;20630;-80
2022/04/23 04:18:15;;;;;;;16.87;15.47;;;9.40;99.90;;;;;;5140430;27;20640;-80
2022/04/23 04:20:42;;;;;;;17.13;16.03;;;9.70;99.90;;;;;;5143326;27;20851;-81
2022/04/23 04:23:09;;;;;;;17.70;16.60;;;9.60;99.90;;;;;;5140785;27;20636;-82
2022/04/23 04:25:35;;;;;;;16.60;15.60;;;9.40;99.90;;;;;;5144574;27;20979;-81
2022/04/23 04:28:05;;;;;;;17.53;16.43;;;9.80;99.90;;;;;;5142086;27;20621;-81
2022/04/23 04:31:46;;;;;;;17.67;16.53;;;9.80;99.90;;;;;;5139539;27;20722;-81
2022/04/23 04:33:19;;;;;;;18.27;17.07;;;9.60;99.90;;;;;;5143397;27;20618;-81
2022/04/23 04:35:45;;;;;;;17.40;16.30;;;9.30;99.90;;;;;;5143567;27;21183;-80
2022/04/23 04:38:12;;;;;;;16.80;15.70;;;9.30;99.90;;;;;;5143176;27;20637;-80
2022/04/23 04:40:39;;;;;;;15.47;14.47;;;9.60;99.90;;;;;;5142409;27;20673;-80
2022/04/23 04:43:07;;;;;;;16.83;15.53;;;9.40;99.90;;;;;;5146800;27;20629;-81
2022/04/23 04:45:34;;;;;;;15.90;14.90;;;9.50;99.90;;;;;;5146262;27;21040;-80
2022/04/23 04:48:01;;;;;;;16.00;15.00;;;10.20;99.90;;;;;;5134641;27;20984;-80
2022/04/23 04:50:27;;;;;;;16.13;15.13;;;9.90;99.90;;;;;;5143803;27;20977;-81
2022/04/23 04:52:54;;;;;;;15.97;14.87;;;10.10;99.90;;;;;;5136476;27;20629;-81
2022/04/23 04:55:21;;;;;;;16.07;14.97;;;9.90;99.90;;;;;;5143819;27;20630;-81
2022/04/23 04:57:49;;;;;;;17.67;16.27;;;10.20;99.90;;;;;;5146107;27;20637;-81
2022/04/23 05:00:19;;;;;;;14.93;14.03;;;9.80;99.90;;;;;;5140738;27;20653;-81
2022/04/23 05:02:45;;;;;;;15.83;14.83;;;10.40;99.90;;;;;;5145556;27;20637;-81
2022/04/23 05:05:12;;;;;;;15.13;14.13;;;10.10;99.90;;;;;;5144338;27;20629;-81
2022/04/23 05:07:39;;;;;;;14.83;13.83;;;10.30;99.90;;;;;;5146999;27;20657;-82
2022/04/23 05:10:06;;;;;;;15.33;14.23;;;10.00;99.90;;;;;;5150717;27;21069;-82
2022/04/23 05:12:33;;;;;;;14.30;13.40;;;10.60;99.90;;;;;;5143128;27;21047;-82
2022/04/23 05:15:00;;;;;;;15.20;14.10;;;10.20;99.90;;;;;;5148597;27;20629;-82
2022/04/23 05:17:28;;;;;;;14.80;13.90;;;10.20;99.90;;;;;;5146290;27;20613;-82
2022/04/23 05:19:54;;;;;;;14.90;13.90;;;10.10;99.90;;;;;;5149450;27;20657;-81
2022/04/23 05:22:21;;;;;;;15.33;14.33;;;10.60;99.90;;;;;;5150286;27;20624;-82
2022/04/23 05:24:48;;;;;;;16.00;15.00;;;10.40;99.90;;;;;;5147207;27;20630;-81
2022/04/23 05:27:14;;;;;;;15.00;14.00;;;10.40;99.90;;;;;;5148120;27;20665;-81
2022/04/23 05:29:41;;;;;;;15.73;14.43;;;10.30;99.90;;;;;;5145320;27;22194;-81
2022/04/23 05:32:09;;;;;;;14.67;13.60;;;10.50;99.90;;;;;;5150383;27;20690;-80
2022/04/23 05:34:37;;;;;;;15.90;14.80;;;10.80;99.90;;;;;;5146563;27;20625;-81
2022/04/23 05:37:04;;;;;;;14.97;13.80;;;10.90;99.90;;;;;;5149012;27;20643;-81
2022/04/23 05:39:31;;;;;;;15.03;13.67;;;10.90;99.90;;;;;;5147102;27;20653;-81
2022/04/23 05:41:58;;;;;;;13.20;12.40;;;11.00;99.90;;;;;;5148451;27;20640;-80
2022/04/23 05:44:24;;;;;;;14.07;13.17;;;10.60;99.90;;;;;;5148578;27;21171;-81
2022/04/23 05:46:51;;;;;;;14.27;13.17;;;10.70;99.90;;;;;;5141957;27;20664;-81
2022/04/23 05:49:18;;;;;;;14.67;13.77;;;11.00;99.90;;;;;;5142606;27;20655;-81
2022/04/23 05:51:46;;;;;;;14.23;13.27;;;10.70;99.90;;;;;;5147491;27;21077;-80
2022/04/23 05:54:12;;;;;;;13.67;12.77;;;11.10;99.90;;;;;;5145908;27;20632;-82
2022/04/23 05:56:39;;;;;;;13.87;12.93;;;11.10;99.90;;;;;;5146347;27;20641;-81
2022/04/23 05:59:06;;;;;;;14.80;13.80;;;10.90;99.90;;;;;;5145375;27;21256;-81
2022/04/23 06:01:34;;;;;;;14.13;13.30;;;10.80;99.90;;;;;;5146655;27;20659;-82
2022/04/23 06:04:01;;;;;;;14.20;13.13;;;11.40;99.90;;;;;;5144341;27;21100;-82
2022/04/23 06:06:28;;;;;;;12.43;11.63;;;11.30;99.90;;;;;;5148402;27;20645;-82
2022/04/23 06:08:56;;;;;;;13.33;12.43;;;11.10;99.90;;;;;;5146105;27;21237;-82
2022/04/23 06:11:23;;;;;;;11.70;10.93;;;11.10;99.90;;;;;;5145374;27;21187;-81
2022/04/23 06:13:50;;;;;;;12.10;11.30;;;11.20;99.90;;;;;;5145805;27;21000;-82
2022/04/23 06:16:17;;;;;;;11.57;10.77;;;11.30;99.90;;;;;;5147839;27;20644;-82
2022/04/23 06:18:43;;;;;;;10.40;9.73;;;11.10;99.90;;;;;;5143422;27;20998;-81
2022/04/23 06:21:10;;;;;;;10.40;9.70;;;11.00;99.90;;;;;;5148033;27;20616;-82
2022/04/23 06:23:37;;;;;;;11.40;10.50;;;11.00;99.90;;;;;;5145488;27;21009;-82
2022/04/23 06:26:05;;;;;;;9.37;8.77;;;11.20;99.90;;;;;;5145791;27;20632;-82
2022/04/23 06:28:32;;;;;;;10.17;9.47;;;11.40;99.90;;;;;;5144500;27;20645;-82
2022/04/23 06:30:58;;;;;;;11.57;10.60;;;11.60;99.90;;;;;;5144502;27;21206;-82
2022/04/23 06:33:25;;;;;;;9.53;8.93;;;11.50;99.90;;;;;;5142526;27;20613;-81
2022/04/23 06:35:52;;;;;;;9.70;9.00;;;11.40;99.90;;;;;;5148024;27;20633;-82
2022/04/23 06:38:18;;;;;;;9.67;8.97;;;11.40;99.90;;;;;;5146376;27;20641;-81
2022/04/23 06:40:45;;;;;;;11.07;10.27;;;11.50;99.90;;;;;;5153797;27;20637;-83
2022/04/23 06:43:13;;;;;;;10.10;9.50;;;11.50;99.90;;;;;;5147335;27;20672;-82
2022/04/23 06:45:40;;;;;;;10.57;9.87;;;11.60;99.90;;;;;;5141336;27;20610;-82
2022/04/23 06:48:07;;;;;;;10.47;9.77;;;12.00;99.90;;;;;;5146156;27;20660;-82
2022/04/23 06:50:37;;;;;;;10.07;9.37;;;11.90;99.90;;;;;;5143660;27;20614;-82
2022/04/23 06:53:05;;;;;;;10.83;10.03;;;11.40;99.90;;;;;;5139148;27;20649;-83
2022/04/23 06:55:32;;;;;;;11.43;10.63;;;11.60;99.90;;;;;;5146947;27;20624;-82
2022/04/23 06:57:59;;;;;;;10.83;10.03;;;11.70;99.90;;;;;;5145618;27;21175;-83
2022/04/23 07:00:27;;;;;;;10.67;9.87;;;11.60;99.90;;;;;;5144016;27;20622;-82
2022/04/23 07:02:54;;;;;;;10.90;10.10;;;11.80;99.90;;;;;;5141512;27;21264;-82
2022/04/23 07:05:21;;;;;;;10.40;9.60;;;11.40;99.90;;;;;;5148310;27;20967;-82
2022/04/23 07:07:56;;;;;;;10.40;9.70;;;11.80;99.90;;;;;;5145677;27;20666;-82
2022/04/23 07:10:23;;;;;;;10.83;10.03;;;11.60;99.90;;;;;;5145794;27;20661;-82
2022/04/23 07:12:52;;;;;;;10.63;9.93;;;11.80;99.90;;;;;;5142853;27;20649;-81
2022/04/23 07:15:19;;;;;;;10.53;9.93;;;11.90;99.90;;;;;;5143603;27;20682;-82
2022/04/23 07:17:47;;;;;;;8.73;8.13;;;12.00;99.90;;;;;;5146120;27;21163;-81
2022/04/23 07:20:14;;;;;;;9.87;9.17;;;12.20;99.90;;;;;;5143352;27;20660;-82
2022/04/23 07:24:02;;;;;;;9.60;8.90;;;12.20;99.90;;;;;;5146068;27;20720;-82
2022/04/23 07:25:28;;;;;;;9.07;8.37;;;12.40;99.90;;;;;;5145915;27;20683;-82
2022/04/23 07:27:54;;;;;;;9.27;8.57;;;12.50;99.90;;;;;;5144233;27;20665;-82
2022/04/23 07:30:21;;;;;;;9.07;8.47;;;12.50;99.90;;;;;;5145933;27;20683;-82
2022/04/23 07:32:50;;;;;;;9.30;8.70;;;12.60;99.90;;;;;;5140082;27;20664;-82
2022/04/23 07:38:11;;;;;;;10.13;9.43;;;12.90;99.90;;;;;;5143767;27;20596;-82
2022/04/23 07:40:40;;;;;;;9.40;8.70;;;13.00;99.90;;;;;;5144866;27;21131;-81
2022/04/23 07:43:09;;;;;;;9.60;8.90;;;12.90;99.90;;;;;;5145350;27;20657;-81
2022/04/23 07:45:36;;;;;;;9.40;8.70;;;13.10;99.90;;;;;;5139879;27;20624;-82
2022/04/23 07:48:04;;;;;;;9.07;8.47;;;13.20;99.90;;;;;;5143282;27;20653;-83
2022/04/23 07:50:31;;;;;;;8.50;7.90;;;13.30;99.90;;;;;;5147338;27;20610;-82
2022/04/23 07:52:58;;;;;;;8.57;7.90;;;13.40;99.90;;;;;;5140405;27;20654;-82
2022/04/23 07:55:25;;;;;;;9.80;8.30;;;13.50;99.90;;;;;;5144615;27;20621;-82
2022/04/23 07:57:52;;;;;;;7.80;7.20;;;13.50;99.90;;;;;;5145690;27;21282;-81
2022/04/23 08:00:18;;;;;;;8.90;8.10;;;13.60;99.90;;;;;;5136053;27;20633;-81
2022/04/23 08:02:45;;;;;;;8.37;7.77;;;13.70;99.90;;;;;;5142262;27;21010;-82
2022/04/23 08:05:13;;;;;;;8.50;7.80;;;13.60;99.90;;;;;;5146243;27;20632;-81
2022/04/23 08:07:42;;;;;;;8.80;8.10;;;13.60;99.90;;;;;;5142922;27;20658;-82
2022/04/23 08:10:10;;;;;;;9.27;8.47;;;13.60;99.90;;;;;;5143968;27;20631;-82
2022/04/23 08:12:37;;;;;;;9.10;8.40;;;13.60;99.90;;;;;;5140685;27;20649;-82
2022/04/23 08:15:05;;;;;;;9.63;8.70;;;13.70;99.90;;;;;;5144707;27;20622;-81
2022/04/23 08:17:32;;;;;;;7.87;7.20;;;13.70;99.90;;;;;;5141777;27;20603;-82
2022/04/23 08:19:59;;;;;;;9.30;8.60;;;13.80;99.90;;;;;;5145476;27;20610;-82
2022/04/23 08:22:27;;;;;;;9.27;8.60;;;13.90;99.90;;;;;;5146078;27;20649;-81
2022/04/23 08:24:54;;;;;;;9.27;8.57;;;14.00;99.90;;;;;;5138734;27;20621;-81
2022/04/23 08:27:20;;;;;;;9.53;8.83;;;13.80;99.90;;;;;;5141622;27;21248;-81
2022/04/23 08:32:31;;;;;;;11.40;10.50;;;13.80;99.90;;;;;;5142460;27;21327;-81
2022/04/23 08:34:59;;;;;;;10.00;9.30;;;13.50;99.90;;;;;;5145453;27;20632;-81
2022/04/23 08:37:27;;;;;;;10.43;9.53;;;13.60;99.90;;;;;;5150963;27;20616;-82
2022/04/23 08:39:54;;;;;;;9.80;9.10;;;13.60;99.90;;;;;;5146308;27;20628;-82
2022/04/23 08:42:21;;;;;;;10.20;9.30;;;13.70;99.90;;;;;;5147354;27;21221;-81
2022/04/23 08:44:48;;;;;;;10.23;9.43;;;13.80;99.90;;;;;;5144123;27;20610;-81
2022/04/23 08:47:18;;;;;;;10.30;9.40;;;13.90;99.90;;;;;;5147031;27;20645;-81
2022/04/23 08:49:47;;;;;;;9.10;8.30;;;14.00;99.90;;;;;;5147021;27;20609;-81
2022/04/23 08:52:17;;;;;;;10.60;9.70;;;14.20;99.90;;;;;;5140892;27;20997;-82
2022/04/23 08:54:46;;;;;;;14.33;10.53;;;14.20;99.90;;;;;;5156830;27;20672;-80
2022/04/23 08:57:12;;;;;;;10.80;9.90;;;14.30;99.90;;;;;;5143817;27;20618;-80
2022/04/23 08:59:40;;;;;;;10.40;9.57;;;14.30;99.90;;;;;;5150199;27;20980;-80
2022/04/23 09:02:12;;;;;;;11.20;10.33;;;14.40;99.90;;;;;;5148938;27;20688;-80
2022/04/23 09:04:40;;;;;;;10.63;9.73;;;14.60;99.90;;;;;;5145430;27;21118;-79
2022/04/23 09:07:18;;;;;;;9.50;8.80;;;14.60;99.90;;;;;;5143095;27;20664;-82
2022/04/23 09:09:50;;;;;;;8.83;8.13;;;14.70;99.90;;;;;;5149193;27;20676;-80
2022/04/23 09:12:17;;;;;;;10.00;9.20;;;14.70;99.90;;;;;;5145145;27;20740;-80
2022/04/23 09:14:45;;;;;;;9.33;8.63;;;14.70;99.90;;;;;;5148269;27;20653;-80
2022/04/23 09:25:41;;;;;;;8.40;7.80;;;14.70;99.90;;;;;;5116288;27;20640;-81
2022/04/23 09:28:15;;;;;;;8.20;7.50;;;14.70;99.90;;;;;;5148819;27;21230;-81
2022/04/23 09:30:42;;;;;;;9.27;8.47;;;14.70;99.90;;;;;;5148280;27;20645;-81
2022/04/23 09:33:09;;;;;;;8.57;7.87;;;14.80;99.90;;;;;;5147372;27;20657;-81
2022/04/23 09:35:36;;;;;;;9.10;8.07;;;15.00;99.90;;;;;;5147644;27;20605;-81
2022/04/23 09:38:17;;;;;;;8.60;7.90;;;15.10;99.90;;;;;;5147854;27;21243;-81
2022/04/23 09:40:50;;;;;;;8.90;8.10;;;15.10;99.90;;;;;;5141991;27;20602;-80
2022/04/23 09:43:25;;;;;;;7.80;7.20;;;15.20;99.90;;;;;;5143749;27;20657;-81
2022/04/23 09:46:01;;;;;;;7.00;6.50;;;15.40;99.90;;;;;;5148606;27;20609;-81
2022/04/23 09:48:27;;;;;;;6.93;6.33;;;15.30;99.90;;;;;;5147187;27;21039;-81
2022/04/23 09:50:54;;;;;;;6.43;6.00;;;15.30;99.90;;;;;;5148286;27;20633;-81
2022/04/23 09:53:22;;;;;;;6.90;6.40;;;15.40;99.90;;;;;;5142059;27;20605;-82
2022/04/23 09:55:50;;;;;;;6.10;5.60;;;15.30;99.90;;;;;;5148293;27;20625;-81
2022/04/23 09:58:17;;;;;;;8.80;8.00;;;15.30;99.90;;;;;;5147420;27;20716;-82
2022/04/23 10:00:45;;;;;;;7.30;6.70;;;15.20;99.90;;;;;;5149298;27;20712;-82
2022/04/23 10:03:12;;;;;;;7.50;6.90;;;15.10;99.90;;;;;;5147534;27;20732;-81
2022/04/23 10:05:41;;;;;;;7.63;7.03;;;15.30;99.90;;;;;;5145695;27;20621;-82
2022/04/23 10:08:13;;;;;;;7.63;6.93;;;15.30;99.60;;;;;;5142009;27;20984;-81
2022/04/23 10:10:47;;;;;;;6.87;6.30;;;15.30;99.90;;;;;;5145322;27;20977;-81
2022/04/23 10:13:19;;;;;;;6.77;6.20;;;15.40;99.90;;;;;;5147048;27;20671;-81
2022/04/23 10:15:47;;;;;;;6.00;5.50;;;15.50;99.90;;;;;;5153561;27;20617;-81
2022/04/23 10:18:15;;;;;;;6.43;5.63;;;15.60;99.90;;;;;;5145548;27;21163;-82
2022/04/23 10:20:52;;;;;;;6.47;5.87;;;15.70;99.80;;;;;;5147087;27;20722;-81
2022/04/23 10:23:28;;;;;;;6.00;5.50;;;15.80;99.50;;;;;;5144807;27;20692;-81
2022/04/23 10:26:24;;;;;;;5.40;4.93;;;15.80;99.00;;;;;;5143044;27;20632;-81
2022/04/23 10:28:52;;;;;;;6.07;5.57;;;16.00;98.90;;;;;;5141362;27;20711;-81
2022/04/23 10:31:19;;;;;;;6.57;5.97;;;16.10;99.00;;;;;;5143778;27;20660;-81
2022/04/23 10:33:49;;;;;;;6.27;5.77;;;16.10;99.30;;;;;;5148866;27;20627;-81
2022/04/23 10:36:17;;;;;;;7.23;6.70;;;16.20;98.40;;;;;;5145437;27;20994;-81
2022/04/23 10:38:48;;;;;;;6.70;6.20;;;16.40;97.80;;;;;;5144235;27;21125;-82
2022/04/23 10:41:17;;;;;;;6.57;5.97;;;16.50;97.60;;;;;;5146665;27;20613;-81
2022/04/23 10:43:48;;;;;;;6.90;6.40;;;16.50;97.90;;;;;;5146888;27;20961;-81
2022/04/23 10:46:49;;;;;;;6.83;6.23;;;16.50;97.80;;;;;;5144886;27;20631;-81
2022/04/23 10:49:19;;;;;;;6.90;6.40;;;16.50;97.30;;;;;;5141982;27;21289;-81
2022/04/23 10:51:48;;;;;;;8.10;7.30;;;16.60;97.50;;;;;;5146249;27;21211;-81
2022/04/23 10:54:16;;;;;;;8.47;7.87;;;16.70;97.20;;;;;;5144665;27;20627;-82
2022/04/23 10:56:44;;;;;;;8.53;7.83;;;16.80;96.50;;;;;;5148107;27;20621;-81
2022/04/23 10:59:34;;;;;;;8.67;7.90;;;16.90;96.50;;;;;;5139837;27;20685;-81
2022/04/23 11:02:05;;;;;;;7.43;6.90;;;16.90;96.60;;;;;;5145412;27;21226;-81
2022/04/23 11:12:14;;;;;;;8.50;7.80;;;17.20;96.50;;;;;;5147550;27;20609;-81
2022/04/23 11:13:25;;;;;;;7.10;6.40;;;17.20;96.10;;;;;;5137947;27;20811;-81
2022/04/23 11:16:13;;;;;;;7.67;7.07;;;17.20;96.20;;;;;;5141235;27;20929;-81
2022/04/23 11:18:41;;;;;;;8.07;7.37;;;17.30;95.80;;;;;;5142459;27;20614;-81
2022/04/23 11:21:11;;;;;;;8.00;7.40;;;17.30;95.70;;;;;;5147415;27;20632;-82
2022/04/23 11:23:39;;;;;;;8.47;7.73;;;17.20;95.80;;;;;;5139185;27;20645;-82
2022/04/23 11:26:07;;;;;;;8.80;8.10;;;17.20;95.50;;;;;;5148304;27;20640;-81
2022/04/23 11:28:33;;;;;;;7.13;6.53;;;17.20;95.30;;;;;;5144361;27;20646;-81
2022/04/23 11:31:09;;;;;;;8.27;7.33;;;17.10;96.00;;;;;;5147336;27;21002;-81
2022/04/23 11:33:37;;;;;;;9.37;6.43;;;17.20;95.70;;;;;;5140860;27;20609;-81
2022/04/23 11:36:04;;;;;;;8.00;7.37;;;17.20;95.80;;;;;;5146941;27;20649;-81
2022/04/23 11:38:32;;;;;;;7.63;7.03;;;17.20;95.80;;;;;;5146293;27;20622;-81
2022/04/23 11:40:59;;;;;;;9.60;7.53;;;17.30;95.30;;;;;;5143152;27;21166;-81
2022/04/23 11:43:33;;;;;;;7.93;7.37;;;17.20;95.60;;;;;;5145052;27;21361;-81
2022/04/23 11:46:05;;;;;;;7.00;6.50;;;17.30;95.80;;;;;;5140683;27;20609;-81
2022/04/23 11:48:44;;;;;;;6.43;5.93;;;17.40;95.60;;;;;;5138669;27;20658;-80
2022/04/23 11:51:12;;;;;;;10.97;6.80;;;17.50;95.30;;;;;;5144965;27;20649;-81
2022/04/23 11:53:57;;;;;;;6.83;6.07;;;17.30;95.10;;;;;;5143026;27;21076;-83
2022/04/23 11:56:27;;;;;;;7.53;6.83;;;17.40;94.90;;;;;;5145660;27;20621;-81
2022/04/23 11:58:56;;;;;;;7.30;6.70;;;17.50;95.40;;;;;;5145409;27;20741;-80
2022/04/23 12:01:24;;;;;;;7.63;7.00;;;17.70;95.30;;;;;;5144369;27;20660;-82
2022/04/23 12:03:53;;;;;;;7.40;6.70;;;17.80;95.20;;;;;;5144367;27;20701;-81
2022/04/23 12:06:19;;;;;;;6.73;6.23;;;18.00;94.60;;;;;;5142834;27;20984;-81
2022/04/23 12:08:46;;;;;;;7.07;6.37;;;18.00;94.30;;;;;;5144263;27;20659;-81
2022/04/23 12:11:22;;;;;;;8.07;7.30;;;18.10;94.50;;;;;;5145495;27;20625;-82
2022/04/23 12:13:49;;;;;;;7.43;6.80;;;18.20;94.30;;;;;;5143118;27;20612;-82
2022/04/23 12:16:30;;;;;;;9.63;6.57;;;18.30;93.90;;;;;;5139705;27;21163;-81
2022/04/23 12:19:02;;;;;;;7.70;7.10;;;18.20;94.30;;;;;;5137527;27;21174;-81
2022/04/23 12:21:29;;;;;;;9.23;6.70;;;18.30;94.00;;;;;;5143713;27;20690;-82
2022/04/23 12:23:56;;;;;;;6.70;6.20;;;18.40;94.00;;;;;;5139646;27;20739;-82
2022/04/23 12:26:31;;;;;;;6.50;5.90;;;18.40;93.80;;;;;;5142632;27;20632;-82
2022/04/23 12:43:24;;;;;;;10.40;6.20;;;18.80;92.70;;;;;;5141680;27;21257;-82
2022/04/23 12:46:03;;;;;;;6.10;5.67;;;18.90;92.70;;;;;;5144923;27;20620;-82
2022/04/23 12:48:29;;;;;;;5.60;5.20;;;18.90;92.70;;;;;;5137809;27;20696;-82
2022/04/23 12:51:07;;;;;;;8.60;6.70;;;18.90;92.60;;;;;;5137182;27;20633;-82
2022/04/23 12:53:35;;;;;;;7.10;6.50;;;19.10;92.80;;;;;;5142862;27;20611;-82
2022/04/23 12:56:05;;;;;;;7.33;6.47;;;19.10;92.70;;;;;;5146587;27;20625;-82
2022/04/23 12:58:33;;;;;;;7.37;6.67;;;19.00;92.30;;;;;;5144931;27;20714;-82
2022/04/23 13:01:00;;;;;;;7.33;6.63;;;18.90;92.70;;;;;;5147594;27;20681;-83
2022/04/23 13:03:35;;;;;;;12.00;7.00;;;18.90;92.40;;;;;;5145429;27;20674;-82
2022/04/23 13:06:04;;;;;;;6.63;6.13;;;18.90;92.50;;;;;;5146662;27;20625;-84
2022/04/23 13:11:25;;;;;;;7.30;6.57;;;18.60;92.90;;;;;;5143738;27;20642;-82
2022/04/23 13:13:55;;;;;;;7.03;6.33;;;18.40;93.60;;;;;;5141413;27;20625;-82
2022/04/23 13:16:24;;;;;;;7.93;7.13;;;18.40;93.00;;;;;;5145311;27;21040;-82
2022/04/23 13:18:52;;;;;;;7.93;6.90;;;18.30;93.70;;;;;;5141474;27;20618;-83
2022/04/23 13:21:19;;;;;;;7.53;6.93;;;18.20;94.60;;;;;;5144961;27;20656;-81
2022/04/23 13:23:45;;;;;;;6.67;6.17;;;18.20;94.80;;;;;;5147977;27;20648;-81